Domov               UVHVVR             MKGP            O straneh              
ZDRAVSTVENO VARSTVO RASTLIN
  MREŽA AGROMET. POSTAJ
 ► PROGNOSTIČNA OBVESTILA
AGROMETEOROLOŠKI PODATKI -
ARSO
OBVLADOVANJE TVEGANJ ZARADI
NEUGODNIH VREMENSKIH RAZMER
  ► NARAVNE NESREČE
  ► SUŠA/MOČA
  ► NAMAKANJE
  ► ŽLED (gozdarstvo)
KARTOGRAFSKI PRIKAZI
SPLETNE POVEZAVE
PROJEKTI IN PUBLIKACIJE

AGROMETEOROLOŠKA MREŽA: VREMENSKE POSTAJE IN FENOLOŠKA OPAZOVANJA

Pregled podatkov za lokacijo Maribor - BTŠ, meteorološka postaja 35810

Pregled senzorjev na lokaciji

ID Ime Zadnja
vrednost
Datum
zadnje
spremembe
Tip
senzorja
1723 Padavine (mm) 0 mm 25.2.2018 12:00 Generic 0.2 mm
1722 Relativna vlaga 2 m (% RH) 51,77 % RH 25.2.2018 12:00 Generic 0 - 100 %
1721 Temperatura 2 m (°C) -6,5 °C 25.2.2018 12:00 Generic -40 - +60 °C

Pregled podatkov zadnjih 24 ur

Zap.
št.
Datum in čas Maribor - BTŠ
Padavine Relativna
vlaga
2
m
Temperatura
2
m
1 25.2.2018 12:30
2 25.2.2018 12:00 0 51,8 -6,5
3 25.2.2018 11:30 0 53,4 -7
4 25.2.2018 11:00 0 53,1 -7,1
5 25.2.2018 10:30 0 53,1 -7,1
6 25.2.2018 10:00 0 54,2 -7,6
7 25.2.2018 09:30 0 53,6 -7,4
8 25.2.2018 09:00 0 56,6 -8
9 25.2.2018 08:30 0 60,9 -9,2
10 25.2.2018 08:00 0 68,6 -11
11 25.2.2018 07:30 0 73,8 -12,7
12 25.2.2018 07:00 0 71 -11,9
13 25.2.2018 06:30 0 71 -11,7
14 25.2.2018 06:00 0 66,8 -10,4
15 25.2.2018 05:30 0 70,9 -10,4
16 25.2.2018 05:00 0 73,7 -10
17 25.2.2018 04:30 0 74,8 -9,5
18 25.2.2018 04:00 0 74,8 -9,4
19 25.2.2018 03:30 0 76,2 -9,2
20 25.2.2018 03:00 0 74,4 -8,7
21 25.2.2018 02:30 0 70,6 -8
22 25.2.2018 02:00 0 67,7 -7,5
23 25.2.2018 01:30 0 65,5 -7
24 25.2.2018 01:00 0 61,8 -6,2
25 25.2.2018 00:30 0 60,6 -5,7
26 25.2.2018 00:00 0 60,8 -5,6
27 24.2.2018 23:30 0 61 -5,4
28 24.2.2018 23:00 0 60,7 -5,3
29 24.2.2018 22:30 0 61,5 -5,1
30 24.2.2018 22:00 0 63,8 -4,9
31 24.2.2018 21:30 0 66 -4,6
32 24.2.2018 21:00 0 66,5 -4
33 24.2.2018 20:30 0 62,3 -3,6
34 24.2.2018 20:00 0 78,8 -5
35 24.2.2018 19:30 0 80,7 -5,3
36 24.2.2018 19:00 0 72,3 -4,5
37 24.2.2018 18:30 0 76,2 -5,2
38 24.2.2018 18:00 0 79,7 -5,7
39 24.2.2018 17:30 0 75,4 -4,2
40 24.2.2018 17:00 0 65,9 -1,7
41 24.2.2018 16:30 0 62 -0,8
42 24.2.2018 16:00 0 60,7 -0,6
43 24.2.2018 15:30 0 66,8 -0,4
44 24.2.2018 15:00 0 74,7 -0,7
45 24.2.2018 14:30 0 73,2 -0,9
46 24.2.2018 14:00 0 76,3 -1,1
47 24.2.2018 13:30 0 78,5 -1,6
48 24.2.2018 13:00 0 79,3 -1,8
© 2011 Ministrstvo za kmetijstvo, gozdarstvo in prehrano. Vse pravice pridržane.